sensor_id;sensor_type;location;lat;lon;timestamp;temperature;humidity
4429;DHT22;2227;47.810;8.810;2023-01-28T00:01:45;2.00;99.90
4429;DHT22;2227;47.810;8.810;2023-01-28T00:04:12;2.10;99.90
4429;DHT22;2227;47.810;8.810;2023-01-28T00:06:39;2.20;99.90
4429;DHT22;2227;47.810;8.810;2023-01-28T00:09:06;2.20;99.90
4429;DHT22;2227;47.810;8.810;2023-01-28T00:11:33;2.30;99.90
4429;DHT22;2227;47.810;8.810;2023-01-28T00:14:00;2.30;99.90
4429;DHT22;2227;47.810;8.810;2023-01-28T00:16:27;2.10;99.90
4429;DHT22;2227;47.810;8.810;2023-01-28T00:18:54;2.30;99.90
4429;DHT22;2227;47.810;8.810;2023-01-28T00:21:21;2.40;99.90
4429;DHT22;2227;47.810;8.810;2023-01-28T00:23:51;2.30;99.90
4429;DHT22;2227;47.810;8.810;2023-01-28T00:26:20;2.40;99.90
4429;DHT22;2227;47.810;8.810;2023-01-28T00:28:47;2.40;99.90
4429;DHT22;2227;47.810;8.810;2023-01-28T05:33:02;1.60;99.90
4429;DHT22;2227;47.810;8.810;2023-01-28T05:35:29;1.70;99.90
4429;DHT22;2227;47.810;8.810;2023-01-28T05:37:55;1.60;99.90
4429;DHT22;2227;47.810;8.810;2023-01-28T05:40:22;1.70;99.90
4429;DHT22;2227;47.810;8.810;2023-01-28T05:42:49;1.80;99.90
4429;DHT22;2227;47.810;8.810;2023-01-28T05:45:15;1.90;99.90
4429;DHT22;2227;47.810;8.810;2023-01-28T05:47:42;1.90;99.90
4429;DHT22;2227;47.810;8.810;2023-01-28T05:50:12;1.80;99.90
4429;DHT22;2227;47.810;8.810;2023-01-28T05:52:40;1.80;99.90
4429;DHT22;2227;47.810;8.810;2023-01-28T05:55:07;1.90;99.90
4429;DHT22;2227;47.810;8.810;2023-01-28T05:57:34;1.70;99.90
4429;DHT22;2227;47.810;8.810;2023-01-28T06:00:02;1.70;99.90
4429;DHT22;2227;47.810;8.810;2023-01-28T06:02:31;1.80;99.90
4429;DHT22;2227;47.810;8.810;2023-01-28T06:04:58;1.90;99.90
4429;DHT22;2227;47.810;8.810;2023-01-28T06:07:24;1.90;99.90
4429;DHT22;2227;47.810;8.810;2023-01-28T06:09:51;1.70;99.90
4429;DHT22;2227;47.810;8.810;2023-01-28T06:12:18;1.60;99.90
4429;DHT22;2227;47.810;8.810;2023-01-28T06:14:44;1.50;99.90
4429;DHT22;2227;47.810;8.810;2023-01-28T06:17:11;1.70;99.90
4429;DHT22;2227;47.810;8.810;2023-01-28T06:19:38;1.80;99.90
4429;DHT22;2227;47.810;8.810;2023-01-28T06:22:04;1.80;99.90
4429;DHT22;2227;47.810;8.810;2023-01-28T06:24:31;1.80;99.90
4429;DHT22;2227;47.810;8.810;2023-01-28T06:26:58;2.00;99.90
4429;DHT22;2227;47.810;8.810;2023-01-28T06:29:24;1.90;99.90
4429;DHT22;2227;47.810;8.810;2023-01-28T06:31:51;1.60;99.90
4429;DHT22;2227;47.810;8.810;2023-01-28T06:34:18;1.50;99.90
4429;DHT22;2227;47.810;8.810;2023-01-28T06:36:45;1.30;99.90
4429;DHT22;2227;47.810;8.810;2023-01-28T06:39:11;1.20;99.90
4429;DHT22;2227;47.810;8.810;2023-01-28T06:41:38;1.50;99.90
4429;DHT22;2227;47.810;8.810;2023-01-28T06:44:04;1.60;99.90
4429;DHT22;2227;47.810;8.810;2023-01-28T06:46:31;1.70;99.90
4429;DHT22;2227;47.810;8.810;2023-01-28T06:48:58;1.60;99.90
4429;DHT22;2227;47.810;8.810;2023-01-28T06:51:24;1.70;99.90
4429;DHT22;2227;47.810;8.810;2023-01-28T06:53:51;1.80;99.90
4429;DHT22;2227;47.810;8.810;2023-01-28T06:56:18;1.50;99.90
4429;DHT22;2227;47.810;8.810;2023-01-28T06:58:44;1.50;99.90
4429;DHT22;2227;47.810;8.810;2023-01-28T07:01:11;1.50;99.90
4429;DHT22;2227;47.810;8.810;2023-01-28T07:03:38;1.60;99.90
4429;DHT22;2227;47.810;8.810;2023-01-28T07:06:05;1.80;99.90
4429;DHT22;2227;47.810;8.810;2023-01-28T07:08:31;1.90;99.90
4429;DHT22;2227;47.810;8.810;2023-01-28T07:10:58;1.70;99.90
4429;DHT22;2227;47.810;8.810;2023-01-28T07:13:26;1.50;99.90
4429;DHT22;2227;47.810;8.810;2023-01-28T07:15:52;1.60;99.90
4429;DHT22;2227;47.810;8.810;2023-01-28T07:18:19;1.70;99.90
4429;DHT22;2227;47.810;8.810;2023-01-28T07:20:46;1.80;99.90
4429;DHT22;2227;47.810;8.810;2023-01-28T07:23:12;1.70;99.90
4429;DHT22;2227;47.810;8.810;2023-01-28T07:25:39;1.70;99.90
4429;DHT22;2227;47.810;8.810;2023-01-28T07:28:06;1.70;99.90
4429;DHT22;2227;47.810;8.810;2023-01-28T07:30:32;1.70;99.90
4429;DHT22;2227;47.810;8.810;2023-01-28T07:32:59;1.80;99.90
4429;DHT22;2227;47.810;8.810;2023-01-28T07:35:26;1.70;99.90
4429;DHT22;2227;47.810;8.810;2023-01-28T07:37:55;1.70;99.90
4429;DHT22;2227;47.810;8.810;2023-01-28T07:40:24;1.50;99.90
4429;DHT22;2227;47.810;8.810;2023-01-28T07:42:51;1.40;99.90
4429;DHT22;2227;47.810;8.810;2023-01-28T07:45:19;1.70;99.90
4429;DHT22;2227;47.810;8.810;2023-01-28T07:47:56;1.70;99.90
4429;DHT22;2227;47.810;8.810;2023-01-28T07:50:24;1.70;99.90
4429;DHT22;2227;47.810;8.810;2023-01-28T07:52:51;1.70;99.90
4429;DHT22;2227;47.810;8.810;2023-01-28T07:55:18;1.70;99.90
4429;DHT22;2227;47.810;8.810;2023-01-28T07:57:58;1.70;99.90
4429;DHT22;2227;47.810;8.810;2023-01-28T08:00:27;1.80;99.90
4429;DHT22;2227;47.810;8.810;2023-01-28T08:03:00;1.80;99.90
4429;DHT22;2227;47.810;8.810;2023-01-28T08:05:40;1.90;99.90
4429;DHT22;2227;47.810;8.810;2023-01-28T08:08:09;1.80;99.90
4429;DHT22;2227;47.810;8.810;2023-01-28T08:10:36;1.90;99.90
4429;DHT22;2227;47.810;8.810;2023-01-28T08:13:03;1.80;99.90
4429;DHT22;2227;47.810;8.810;2023-01-28T08:15:31;1.80;99.90
4429;DHT22;2227;47.810;8.810;2023-01-28T08:18:01;1.90;99.90
4429;DHT22;2227;47.810;8.810;2023-01-28T08:20:28;2.10;99.90
4429;DHT22;2227;47.810;8.810;2023-01-28T08:23:15;2.10;99.90
4429;DHT22;2227;47.810;8.810;2023-01-28T08:25:44;2.10;99.90
4429;DHT22;2227;47.810;8.810;2023-01-28T08:28:11;2.20;99.90
4429;DHT22;2227;47.810;8.810;2023-01-28T08:30:38;2.00;99.90
4429;DHT22;2227;47.810;8.810;2023-01-28T08:33:07;2.10;99.90
4429;DHT22;2227;47.810;8.810;2023-01-28T08:35:34;2.20;99.90
4429;DHT22;2227;47.810;8.810;2023-01-28T08:38:02;2.30;99.90
4429;DHT22;2227;47.810;8.810;2023-01-28T08:40:29;2.20;99.90
4429;DHT22;2227;47.810;8.810;2023-01-28T08:42:56;2.40;99.90
4429;DHT22;2227;47.810;8.810;2023-01-28T08:45:25;2.40;99.90
4429;DHT22;2227;47.810;8.810;2023-01-28T08:47:56;2.60;99.90
4429;DHT22;2227;47.810;8.810;2023-01-28T08:50:27;2.70;99.90
4429;DHT22;2227;47.810;8.810;2023-01-28T08:52:56;2.90;99.90
4429;DHT22;2227;47.810;8.810;2023-01-28T08:55:24;3.00;99.90
4429;DHT22;2227;47.810;8.810;2023-01-28T08:57:51;3.10;99.90
4429;DHT22;2227;47.810;8.810;2023-01-28T09:00:18;3.30;99.90
4429;DHT22;2227;47.810;8.810;2023-01-28T09:02:45;3.20;99.90
4429;DHT22;2227;47.810;8.810;2023-01-28T09:05:12;3.40;99.90
4429;DHT22;2227;47.810;8.810;2023-01-28T09:07:39;3.50;99.90
4429;DHT22;2227;47.810;8.810;2023-01-28T09:10:06;3.30;99.90
4429;DHT22;2227;47.810;8.810;2023-01-28T09:12:32;3.20;99.90
4429;DHT22;2227;47.810;8.810;2023-01-28T09:14:59;3.10;99.90
4429;DHT22;2227;47.810;8.810;2023-01-28T09:17:26;3.00;99.90
4429;DHT22;2227;47.810;8.810;2023-01-28T09:19:52;3.20;99.90
4429;DHT22;2227;47.810;8.810;2023-01-28T09:22:20;3.00;99.90
4429;DHT22;2227;47.810;8.810;2023-01-28T09:24:46;3.10;99.90
4429;DHT22;2227;47.810;8.810;2023-01-28T09:27:14;3.00;99.90
4429;DHT22;2227;47.810;8.810;2023-01-28T09:29:40;3.00;99.90
4429;DHT22;2227;47.810;8.810;2023-01-28T09:32:07;3.20;99.90
4429;DHT22;2227;47.810;8.810;2023-01-28T09:34:34;3.40;99.90
4429;DHT22;2227;47.810;8.810;2023-01-28T09:37:01;3.50;99.90
4429;DHT22;2227;47.810;8.810;2023-01-28T09:39:27;3.40;99.90
4429;DHT22;2227;47.810;8.810;2023-01-28T09:47:27;3.20;99.90
4429;DHT22;2227;47.810;8.810;2023-01-28T09:49:58;3.10;99.90
4429;DHT22;2227;47.810;8.810;2023-01-28T09:52:29;3.10;99.90
4429;DHT22;2227;47.810;8.810;2023-01-28T09:55:04;3.20;99.90
4429;DHT22;2227;47.810;8.810;2023-01-28T09:57:42;3.20;99.90
4429;DHT22;2227;47.810;8.810;2023-01-28T10:00:14;3.10;99.90
4429;DHT22;2227;47.810;8.810;2023-01-28T10:08:26;3.30;99.90
4429;DHT22;2227;47.810;8.810;2023-01-28T10:11:22;3.60;99.90
4429;DHT22;2227;47.810;8.810;2023-01-28T10:14:11;3.90;99.90
4429;DHT22;2227;47.810;8.810;2023-01-28T10:16:45;3.60;99.90
4429;DHT22;2227;47.810;8.810;2023-01-28T10:19:22;3.80;99.90
4429;DHT22;2227;47.810;8.810;2023-01-28T10:21:58;3.80;99.90
4429;DHT22;2227;47.810;8.810;2023-01-28T10:24:33;4.00;99.90
4429;DHT22;2227;47.810;8.810;2023-01-28T10:27:09;4.00;99.90
4429;DHT22;2227;47.810;8.810;2023-01-28T10:29:37;4.20;99.90
4429;DHT22;2227;47.810;8.810;2023-01-28T10:32:31;4.30;99.90
4429;DHT22;2227;47.810;8.810;2023-01-28T10:34:59;3.90;99.90
4429;DHT22;2227;47.810;8.810;2023-01-28T10:37:33;4.00;99.90
4429;DHT22;2227;47.810;8.810;2023-01-28T10:40:00;4.20;99.90
4429;DHT22;2227;47.810;8.810;2023-01-28T10:42:31;4.00;99.90
4429;DHT22;2227;47.810;8.810;2023-01-28T10:45:14;4.10;99.90
4429;DHT22;2227;47.810;8.810;2023-01-28T10:47:49;3.80;99.90
4429;DHT22;2227;47.810;8.810;2023-01-28T10:50:21;3.80;99.90
4429;DHT22;2227;47.810;8.810;2023-01-28T10:53:00;3.80;99.90
4429;DHT22;2227;47.810;8.810;2023-01-28T10:55:34;3.70;99.90
4429;DHT22;2227;47.810;8.810;2023-01-28T10:58:03;3.80;99.90
4429;DHT22;2227;47.810;8.810;2023-01-28T11:00:36;3.60;99.90
4429;DHT22;2227;47.810;8.810;2023-01-28T11:03:03;3.10;99.90
4429;DHT22;2227;47.810;8.810;2023-01-28T11:05:30;2.90;99.90
4429;DHT22;2227;47.810;8.810;2023-01-28T11:08:15;3.20;99.90
4429;DHT22;2227;47.810;8.810;2023-01-28T11:10:43;3.50;99.90
4429;DHT22;2227;47.810;8.810;2023-01-28T11:13:28;3.70;99.90
4429;DHT22;2227;47.810;8.810;2023-01-28T11:18:59;3.70;99.90
4429;DHT22;2227;47.810;8.810;2023-01-28T11:21:29;3.40;99.90
4429;DHT22;2227;47.810;8.810;2023-01-28T11:24:05;3.40;99.90
4429;DHT22;2227;47.810;8.810;2023-01-28T11:26:53;3.40;99.90
4429;DHT22;2227;47.810;8.810;2023-01-28T11:29:28;3.70;99.90
4429;DHT22;2227;47.810;8.810;2023-01-28T11:31:56;3.70;99.90
4429;DHT22;2227;47.810;8.810;2023-01-28T11:34:29;3.90;99.90
4429;DHT22;2227;47.810;8.810;2023-01-28T11:37:14;4.00;99.90
4429;DHT22;2227;47.810;8.810;2023-01-28T11:39:44;4.30;99.90
4429;DHT22;2227;47.810;8.810;2023-01-28T11:42:18;4.40;99.90
4429;DHT22;2227;47.810;8.810;2023-01-28T11:44:47;4.00;99.90
4429;DHT22;2227;47.810;8.810;2023-01-28T11:55:48;4.10;99.90
4429;DHT22;2227;47.810;8.810;2023-01-28T12:04:16;4.30;99.90
4429;DHT22;2227;47.810;8.810;2023-01-28T12:12:10;4.20;99.90
4429;DHT22;2227;47.810;8.810;2023-01-28T12:31:12;4.30;99.90
4429;DHT22;2227;47.810;8.810;2023-01-28T12:39:19;4.40;99.90
4429;DHT22;2227;47.810;8.810;2023-01-28T12:42:06;4.40;99.90
4429;DHT22;2227;47.810;8.810;2023-01-28T12:44:53;4.40;99.90
4429;DHT22;2227;47.810;8.810;2023-01-28T12:47:27;4.50;99.90
4429;DHT22;2227;47.810;8.810;2023-01-28T12:50:01;4.40;99.90
4429;DHT22;2227;47.810;8.810;2023-01-28T12:52:39;4.40;99.90
4429;DHT22;2227;47.810;8.810;2023-01-28T12:55:18;4.30;99.90
4429;DHT22;2227;47.810;8.810;2023-01-28T12:57:46;4.00;99.90
4429;DHT22;2227;47.810;8.810;2023-01-28T13:03:16;4.30;99.90
4429;DHT22;2227;47.810;8.810;2023-01-28T13:05:51;4.30;99.90
4429;DHT22;2227;47.810;8.810;2023-01-28T13:08:22;4.60;99.90
4429;DHT22;2227;47.810;8.810;2023-01-28T13:10:50;4.40;99.90
4429;DHT22;2227;47.810;8.810;2023-01-28T13:13:34;4.60;99.90
4429;DHT22;2227;47.810;8.810;2023-01-28T13:16:03;4.00;99.90
4429;DHT22;2227;47.810;8.810;2023-01-28T13:26:45;4.30;99.90
4429;DHT22;2227;47.810;8.810;2023-01-28T13:29:17;4.30;99.90
4429;DHT22;2227;47.810;8.810;2023-01-28T13:31:47;4.30;99.90
4429;DHT22;2227;47.810;8.810;2023-01-28T13:34:42;4.20;99.90
4429;DHT22;2227;47.810;8.810;2023-01-28T13:39:48;4.30;99.90
4429;DHT22;2227;47.810;8.810;2023-01-28T13:42:26;4.40;99.90
4429;DHT22;2227;47.810;8.810;2023-01-28T13:44:54;4.60;99.90
4429;DHT22;2227;47.810;8.810;2023-01-28T13:47:26;4.30;99.90
4429;DHT22;2227;47.810;8.810;2023-01-28T13:50:02;4.20;99.90
4429;DHT22;2227;47.810;8.810;2023-01-28T13:52:36;4.50;99.90
4429;DHT22;2227;47.810;8.810;2023-01-28T14:09:41;4.40;99.90
4429;DHT22;2227;47.810;8.810;2023-01-28T14:12:34;4.40;99.90
4429;DHT22;2227;47.810;8.810;2023-01-28T14:20:51;4.00;99.90
4429;DHT22;2227;47.810;8.810;2023-01-28T14:23:20;4.20;99.90
4429;DHT22;2227;47.810;8.810;2023-01-28T14:26:03;4.10;99.90
4429;DHT22;2227;47.810;8.810;2023-01-28T14:31:23;3.90;99.90
4429;DHT22;2227;47.810;8.810;2023-01-28T14:33:52;3.90;99.90
4429;DHT22;2227;47.810;8.810;2023-01-28T14:36:19;4.00;99.90
4429;DHT22;2227;47.810;8.810;2023-01-28T14:38:46;4.00;99.90
4429;DHT22;2227;47.810;8.810;2023-01-28T14:41:25;4.00;99.90
4429;DHT22;2227;47.810;8.810;2023-01-28T14:43:54;4.00;99.90
4429;DHT22;2227;47.810;8.810;2023-01-28T14:46:38;4.10;99.90
4429;DHT22;2227;47.810;8.810;2023-01-28T14:49:26;4.10;99.90
4429;DHT22;2227;47.810;8.810;2023-01-28T14:52:11;3.80;99.90
4429;DHT22;2227;47.810;8.810;2023-01-28T14:57:36;3.60;99.90
4429;DHT22;2227;47.810;8.810;2023-01-28T15:00:18;3.60;99.90
4429;DHT22;2227;47.810;8.810;2023-01-28T15:02:45;3.50;99.90
4429;DHT22;2227;47.810;8.810;2023-01-28T15:05:20;3.40;99.90
4429;DHT22;2227;47.810;8.810;2023-01-28T15:07:48;3.40;99.90
4429;DHT22;2227;47.810;8.810;2023-01-28T15:10:19;3.40;99.90
4429;DHT22;2227;47.810;8.810;2023-01-28T15:13:03;3.50;99.90
4429;DHT22;2227;47.810;8.810;2023-01-28T15:15:39;3.60;99.90
4429;DHT22;2227;47.810;8.810;2023-01-28T15:18:14;3.70;99.90
4429;DHT22;2227;47.810;8.810;2023-01-28T15:20:46;3.80;99.90
4429;DHT22;2227;47.810;8.810;2023-01-28T15:23:16;3.70;99.90
4429;DHT22;2227;47.810;8.810;2023-01-28T15:25:43;3.50;99.90
4429;DHT22;2227;47.810;8.810;2023-01-28T15:28:26;3.40;99.90
4429;DHT22;2227;47.810;8.810;2023-01-28T15:30:54;3.40;99.90
4429;DHT22;2227;47.810;8.810;2023-01-28T15:33:22;3.30;99.90
4429;DHT22;2227;47.810;8.810;2023-01-28T15:35:53;3.60;99.90
4429;DHT22;2227;47.810;8.810;2023-01-28T15:38:21;3.60;99.90
4429;DHT22;2227;47.810;8.810;2023-01-28T15:40:51;3.70;99.90
4429;DHT22;2227;47.810;8.810;2023-01-28T15:43:26;3.80;99.90
4429;DHT22;2227;47.810;8.810;2023-01-28T15:45:55;3.60;99.90
4429;DHT22;2227;47.810;8.810;2023-01-28T15:48:24;3.50;99.90
4429;DHT22;2227;47.810;8.810;2023-01-28T15:51:06;3.50;99.90
4429;DHT22;2227;47.810;8.810;2023-01-28T15:53:40;3.50;99.90
4429;DHT22;2227;47.810;8.810;2023-01-28T15:56:10;3.30;99.90
4429;DHT22;2227;47.810;8.810;2023-01-28T15:58:37;3.30;99.90
4429;DHT22;2227;47.810;8.810;2023-01-28T16:03:35;3.40;99.90
4429;DHT22;2227;47.810;8.810;2023-01-28T16:06:08;3.30;99.90
4429;DHT22;2227;47.810;8.810;2023-01-28T16:08:53;3.40;99.90
4429;DHT22;2227;47.810;8.810;2023-01-28T16:11:23;3.50;99.90
4429;DHT22;2227;47.810;8.810;2023-01-28T16:13:52;3.30;99.90
4429;DHT22;2227;47.810;8.810;2023-01-28T16:16:36;3.30;99.90
4429;DHT22;2227;47.810;8.810;2023-01-28T16:19:05;3.60;99.90
4429;DHT22;2227;47.810;8.810;2023-01-28T16:21:43;3.80;99.90
4429;DHT22;2227;47.810;8.810;2023-01-28T16:24:31;3.50;99.90
4429;DHT22;2227;47.810;8.810;2023-01-28T16:27:17;3.30;99.90
4429;DHT22;2227;47.810;8.810;2023-01-28T16:29:44;3.30;99.90
4429;DHT22;2227;47.810;8.810;2023-01-28T16:34:56;3.10;99.90
4429;DHT22;2227;47.810;8.810;2023-01-28T16:37:22;3.30;99.90
4429;DHT22;2227;47.810;8.810;2023-01-28T16:39:49;3.30;99.90
4429;DHT22;2227;47.810;8.810;2023-01-28T16:42:16;3.40;99.90
4429;DHT22;2227;47.810;8.810;2023-01-28T16:44:43;3.30;99.90
4429;DHT22;2227;47.810;8.810;2023-01-28T16:47:09;3.40;99.90
4429;DHT22;2227;47.810;8.810;2023-01-28T16:49:37;3.10;99.90
4429;DHT22;2227;47.810;8.810;2023-01-28T16:52:05;3.30;99.90
4429;DHT22;2227;47.810;8.810;2023-01-28T16:54:32;3.30;99.90
4429;DHT22;2227;47.810;8.810;2023-01-28T16:57:00;3.50;99.90
4429;DHT22;2227;47.810;8.810;2023-01-28T16:59:26;3.50;99.90
4429;DHT22;2227;47.810;8.810;2023-01-28T17:01:53;3.60;99.90
4429;DHT22;2227;47.810;8.810;2023-01-28T17:04:20;3.50;99.90
4429;DHT22;2227;47.810;8.810;2023-01-28T17:06:46;3.30;99.90
4429;DHT22;2227;47.810;8.810;2023-01-28T17:09:13;3.40;99.90
4429;DHT22;2227;47.810;8.810;2023-01-28T17:11:40;3.50;99.90
4429;DHT22;2227;47.810;8.810;2023-01-28T17:14:09;3.60;99.90
4429;DHT22;2227;47.810;8.810;2023-01-28T17:16:36;3.40;99.90
4429;DHT22;2227;47.810;8.810;2023-01-28T17:19:03;3.50;99.90
4429;DHT22;2227;47.810;8.810;2023-01-28T17:21:30;3.60;99.90
4429;DHT22;2227;47.810;8.810;2023-01-28T17:23:56;3.60;99.90
4429;DHT22;2227;47.810;8.810;2023-01-28T17:26:25;3.60;99.90
4429;DHT22;2227;47.810;8.810;2023-01-28T17:28:52;3.60;99.90
4429;DHT22;2227;47.810;8.810;2023-01-28T17:31:20;3.70;99.90
4429;DHT22;2227;47.810;8.810;2023-01-28T17:33:51;3.70;99.90
4429;DHT22;2227;47.810;8.810;2023-01-28T17:36:18;3.70;99.90
4429;DHT22;2227;47.810;8.810;2023-01-28T17:38:45;3.70;99.90
4429;DHT22;2227;47.810;8.810;2023-01-28T17:41:12;3.70;99.90
4429;DHT22;2227;47.810;8.810;2023-01-28T17:43:39;3.40;99.90
4429;DHT22;2227;47.810;8.810;2023-01-28T17:46:13;3.50;99.90
4429;DHT22;2227;47.810;8.810;2023-01-28T17:48:40;3.60;99.90
4429;DHT22;2227;47.810;8.810;2023-01-28T17:51:08;3.70;99.90
4429;DHT22;2227;47.810;8.810;2023-01-28T17:53:35;3.80;99.90
4429;DHT22;2227;47.810;8.810;2023-01-28T17:56:01;3.70;99.90
4429;DHT22;2227;47.810;8.810;2023-01-28T17:58:28;3.60;99.90
4429;DHT22;2227;47.810;8.810;2023-01-28T18:00:55;3.70;99.90
4429;DHT22;2227;47.810;8.810;2023-01-28T18:03:22;3.80;99.90
4429;DHT22;2227;47.810;8.810;2023-01-28T18:05:56;3.90;99.90
4429;DHT22;2227;47.810;8.810;2023-01-28T18:08:25;3.90;99.90
4429;DHT22;2227;47.810;8.810;2023-01-28T18:10:51;3.70;99.90
4429;DHT22;2227;47.810;8.810;2023-01-28T18:13:18;3.70;99.90
4429;DHT22;2227;47.810;8.810;2023-01-28T18:15:45;3.60;99.90
4429;DHT22;2227;47.810;8.810;2023-01-28T18:18:11;3.70;99.90
4429;DHT22;2227;47.810;8.810;2023-01-28T18:20:38;3.70;99.90
4429;DHT22;2227;47.810;8.810;2023-01-28T18:23:05;3.60;99.90
4429;DHT22;2227;47.810;8.810;2023-01-28T18:25:31;3.60;99.90
4429;DHT22;2227;47.810;8.810;2023-01-28T18:27:58;3.60;99.90
4429;DHT22;2227;47.810;8.810;2023-01-28T18:30:25;3.40;99.90
4429;DHT22;2227;47.810;8.810;2023-01-28T18:32:51;3.40;99.90
4429;DHT22;2227;47.810;8.810;2023-01-28T18:35:18;3.40;99.90
4429;DHT22;2227;47.810;8.810;2023-01-28T18:37:45;3.50;99.90
4429;DHT22;2227;47.810;8.810;2023-01-28T18:40:12;3.60;99.90
4429;DHT22;2227;47.810;8.810;2023-01-28T18:42:38;3.70;99.90
4429;DHT22;2227;47.810;8.810;2023-01-28T18:45:05;3.70;99.90
4429;DHT22;2227;47.810;8.810;2023-01-28T18:47:32;3.50;99.90
4429;DHT22;2227;47.810;8.810;2023-01-28T18:49:59;3.60;99.90
4429;DHT22;2227;47.810;8.810;2023-01-28T18:52:26;3.50;99.90
4429;DHT22;2227;47.810;8.810;2023-01-28T18:54:52;3.50;99.90
4429;DHT22;2227;47.810;8.810;2023-01-28T18:57:19;3.60;99.90
4429;DHT22;2227;47.810;8.810;2023-01-28T18:59:46;3.70;99.90
4429;DHT22;2227;47.810;8.810;2023-01-28T19:02:13;3.70;99.90
4429;DHT22;2227;47.810;8.810;2023-01-28T19:04:41;3.50;99.90
4429;DHT22;2227;47.810;8.810;2023-01-28T19:07:08;3.60;99.90
4429;DHT22;2227;47.810;8.810;2023-01-28T19:09:37;3.60;99.90
4429;DHT22;2227;47.810;8.810;2023-01-28T19:12:04;3.60;99.90
4429;DHT22;2227;47.810;8.810;2023-01-28T19:14:31;3.50;99.90
4429;DHT22;2227;47.810;8.810;2023-01-28T19:16:57;3.60;99.90
4429;DHT22;2227;47.810;8.810;2023-01-28T19:19:24;3.60;99.90
4429;DHT22;2227;47.810;8.810;2023-01-28T19:21:51;3.70;99.90
4429;DHT22;2227;47.810;8.810;2023-01-28T19:24:18;3.60;99.90
4429;DHT22;2227;47.810;8.810;2023-01-28T19:26:45;3.60;99.90
4429;DHT22;2227;47.810;8.810;2023-01-28T19:29:12;3.60;99.90
4429;DHT22;2227;47.810;8.810;2023-01-28T19:31:41;3.50;99.90
4429;DHT22;2227;47.810;8.810;2023-01-28T19:34:09;3.50;99.90
4429;DHT22;2227;47.810;8.810;2023-01-28T19:36:36;3.70;99.90
4429;DHT22;2227;47.810;8.810;2023-01-28T19:39:05;3.60;99.90
4429;DHT22;2227;47.810;8.810;2023-01-28T19:41:32;3.60;99.90
4429;DHT22;2227;47.810;8.810;2023-01-28T19:43:59;3.60;99.90
4429;DHT22;2227;47.810;8.810;2023-01-28T19:46:26;3.50;99.90
4429;DHT22;2227;47.810;8.810;2023-01-28T19:48:53;3.50;99.90
4429;DHT22;2227;47.810;8.810;2023-01-28T19:51:20;3.50;99.90
4429;DHT22;2227;47.810;8.810;2023-01-28T19:53:49;3.40;99.90
4429;DHT22;2227;47.810;8.810;2023-01-28T19:56:17;3.40;99.90
4429;DHT22;2227;47.810;8.810;2023-01-28T19:58:45;3.40;99.90
4429;DHT22;2227;47.810;8.810;2023-01-28T20:01:23;3.40;99.90
4429;DHT22;2227;47.810;8.810;2023-01-28T20:03:54;3.50;99.90
4429;DHT22;2227;47.810;8.810;2023-01-28T20:06:21;3.40;99.90
4429;DHT22;2227;47.810;8.810;2023-01-28T20:08:54;3.50;99.90
4429;DHT22;2227;47.810;8.810;2023-01-28T20:11:21;3.60;99.90
4429;DHT22;2227;47.810;8.810;2023-01-28T20:13:49;3.60;99.90
4429;DHT22;2227;47.810;8.810;2023-01-28T20:16:22;3.70;99.90
4429;DHT22;2227;47.810;8.810;2023-01-28T20:22:03;3.80;99.90
4429;DHT22;2227;47.810;8.810;2023-01-28T20:24:31;3.80;99.90
4429;DHT22;2227;47.810;8.810;2023-01-28T20:26:57;3.80;99.90
4429;DHT22;2227;47.810;8.810;2023-01-28T20:29:24;3.70;99.90
4429;DHT22;2227;47.810;8.810;2023-01-28T20:31:51;3.60;99.90
4429;DHT22;2227;47.810;8.810;2023-01-28T20:34:38;3.50;99.90
4429;DHT22;2227;47.810;8.810;2023-01-28T20:37:04;3.20;99.90
4429;DHT22;2227;47.810;8.810;2023-01-28T20:39:35;3.30;99.90
4429;DHT22;2227;47.810;8.810;2023-01-28T20:42:02;3.30;99.90
4429;DHT22;2227;47.810;8.810;2023-01-28T20:44:29;3.10;99.90
4429;DHT22;2227;47.810;8.810;2023-01-28T20:46:57;3.00;99.90
4429;DHT22;2227;47.810;8.810;2023-01-28T20:49:24;3.10;99.90
4429;DHT22;2227;47.810;8.810;2023-01-28T20:51:54;3.20;99.90
4429;DHT22;2227;47.810;8.810;2023-01-28T20:54:21;3.40;99.90
4429;DHT22;2227;47.810;8.810;2023-01-28T20:56:48;3.40;99.90
4429;DHT22;2227;47.810;8.810;2023-01-28T20:59:15;3.40;99.90
4429;DHT22;2227;47.810;8.810;2023-01-28T21:01:42;3.50;99.90
4429;DHT22;2227;47.810;8.810;2023-01-28T21:04:09;3.40;99.90
4429;DHT22;2227;47.810;8.810;2023-01-28T21:06:36;3.40;99.90
4429;DHT22;2227;47.810;8.810;2023-01-28T21:09:03;3.40;99.90
4429;DHT22;2227;47.810;8.810;2023-01-28T21:11:30;3.30;99.90
4429;DHT22;2227;47.810;8.810;2023-01-28T21:13:57;3.30;99.90
4429;DHT22;2227;47.810;8.810;2023-01-28T21:16:24;3.30;99.90
4429;DHT22;2227;47.810;8.810;2023-01-28T21:18:51;3.30;99.90
4429;DHT22;2227;47.810;8.810;2023-01-28T21:21:27;3.30;99.90
4429;DHT22;2227;47.810;8.810;2023-01-28T21:23:57;3.20;99.90
4429;DHT22;2227;47.810;8.810;2023-01-28T21:26:24;3.30;99.90
4429;DHT22;2227;47.810;8.810;2023-01-28T21:28:51;3.30;99.90
4429;DHT22;2227;47.810;8.810;2023-01-28T21:31:20;3.30;99.90
4429;DHT22;2227;47.810;8.810;2023-01-28T21:33:49;3.30;99.90
4429;DHT22;2227;47.810;8.810;2023-01-28T21:36:17;3.30;99.90
4429;DHT22;2227;47.810;8.810;2023-01-28T21:38:44;3.40;99.90
4429;DHT22;2227;47.810;8.810;2023-01-28T21:41:15;3.40;99.90
4429;DHT22;2227;47.810;8.810;2023-01-28T21:43:42;3.50;99.90
4429;DHT22;2227;47.810;8.810;2023-01-28T21:46:08;3.50;99.90
4429;DHT22;2227;47.810;8.810;2023-01-28T21:48:35;3.50;99.90
4429;DHT22;2227;47.810;8.810;2023-01-28T21:51:05;3.50;99.90
4429;DHT22;2227;47.810;8.810;2023-01-28T21:53:51;3.60;99.90
4429;DHT22;2227;47.810;8.810;2023-01-28T21:56:18;3.60;99.90
4429;DHT22;2227;47.810;8.810;2023-01-28T21:58:45;3.50;99.90
4429;DHT22;2227;47.810;8.810;2023-01-28T22:01:30;3.40;99.90
4429;DHT22;2227;47.810;8.810;2023-01-28T22:03:57;3.60;99.90
4429;DHT22;2227;47.810;8.810;2023-01-28T22:06:24;3.70;99.90
4429;DHT22;2227;47.810;8.810;2023-01-28T22:08:51;3.60;99.90
4429;DHT22;2227;47.810;8.810;2023-01-28T22:11:18;3.60;99.90
4429;DHT22;2227;47.810;8.810;2023-01-28T22:13:45;3.50;99.90
4429;DHT22;2227;47.810;8.810;2023-01-28T22:16:12;3.40;99.90
4429;DHT22;2227;47.810;8.810;2023-01-28T22:18:39;3.40;99.90
4429;DHT22;2227;47.810;8.810;2023-01-28T22:21:07;3.50;99.90
4429;DHT22;2227;47.810;8.810;2023-01-28T22:23:36;3.50;99.90
4429;DHT22;2227;47.810;8.810;2023-01-28T22:26:02;3.30;99.90
4429;DHT22;2227;47.810;8.810;2023-01-28T22:28:29;3.40;99.90
4429;DHT22;2227;47.810;8.810;2023-01-28T22:31:08;3.50;99.90
4429;DHT22;2227;47.810;8.810;2023-01-28T22:33:35;3.50;99.90
4429;DHT22;2227;47.810;8.810;2023-01-28T22:36:12;3.50;99.90
4429;DHT22;2227;47.810;8.810;2023-01-28T22:38:41;3.50;99.90
4429;DHT22;2227;47.810;8.810;2023-01-28T22:41:10;3.50;99.90
4429;DHT22;2227;47.810;8.810;2023-01-28T22:43:37;3.50;99.90
4429;DHT22;2227;47.810;8.810;2023-01-28T22:46:05;3.40;99.90
4429;DHT22;2227;47.810;8.810;2023-01-28T22:48:34;3.40;99.90
4429;DHT22;2227;47.810;8.810;2023-01-28T22:51:24;3.40;99.90
4429;DHT22;2227;47.810;8.810;2023-01-28T22:53:50;3.40;99.90
4429;DHT22;2227;47.810;8.810;2023-01-28T22:56:19;3.40;99.90
4429;DHT22;2227;47.810;8.810;2023-01-28T22:58:46;3.40;99.90
4429;DHT22;2227;47.810;8.810;2023-01-28T23:01:13;3.40;99.90
4429;DHT22;2227;47.810;8.810;2023-01-28T23:03:45;3.50;99.90
4429;DHT22;2227;47.810;8.810;2023-01-28T23:06:17;3.40;99.90
4429;DHT22;2227;47.810;8.810;2023-01-28T23:08:44;3.30;99.90
4429;DHT22;2227;47.810;8.810;2023-01-28T23:11:12;3.20;99.90
4429;DHT22;2227;47.810;8.810;2023-01-28T23:13:51;3.30;99.90
4429;DHT22;2227;47.810;8.810;2023-01-28T23:16:37;3.30;99.90
4429;DHT22;2227;47.810;8.810;2023-01-28T23:19:22;3.30;99.90
4429;DHT22;2227;47.810;8.810;2023-01-28T23:22:30;3.30;99.90